BONE21 EGVA-KEDW
Flight info
| Callsign | BONE21 |
|---|---|
| Flight time | N/A |
| Altitude | 40000 |
| Route | MAXOB DCT OSSEP DCT LUSAT DCT REVNU DCT MOGLO/M082F400 DCT 57N021W 58N030W 59N039W 59N048W/M086F430 DCT URTAK/N0496F430 N892B MCKEE DCT 54N075W 51N083W DCT MECNU Q924 DLH J32 ABR J158 DDY J107 HEC J6 HELDE |
| Aircraft | B1/H-SDFGRWY/S |
Departure
| Time | 2026-05-01 09:55 |
|---|---|
| Airport | RAF Fairford (EGVA) |
Arrival
| Time | N/A |
|---|---|
| Airport | Edwards Air Force Base (KEDW) |
| Time | Latitude | Longitude | Altitude | Speed | Heading |
|---|---|---|---|---|---|
| 2026-05-01 09:26 | 51.68748 | -1.77108 | 269 ft | 0 kts | 33° |
| 2026-05-01 09:46 | 51.68752 | -1.77105 | 269 ft | 3 kts | 33° |
| 2026-05-01 09:46 | 51.68772 | -1.77091 | 269 ft | 5 kts | 4° |
| 2026-05-01 09:46 | 51.68818 | -1.77152 | 269 ft | 11 kts | 296° |
| 2026-05-01 09:46 | 51.68794 | -1.77241 | 270 ft | 12 kts | 214° |
| 2026-05-01 09:47 | 51.68710 | -1.77337 | 271 ft | 18 kts | 216° |
| 2026-05-01 09:47 | 51.68590 | -1.77468 | 272 ft | 25 kts | 218° |
| 2026-05-01 09:47 | 51.68535 | -1.77749 | 274 ft | 31 kts | 267° |
| 2026-05-01 09:47 | 51.68528 | -1.78053 | 276 ft | 24 kts | 269° |
| 2026-05-01 09:48 | 51.68522 | -1.78359 | 278 ft | 31 kts | 268° |
| 2026-05-01 09:48 | 51.68515 | -1.78749 | 280 ft | 39 kts | 268° |
| 2026-05-01 09:48 | 51.68504 | -1.79228 | 284 ft | 47 kts | 267° |
| 2026-05-01 09:48 | 51.68486 | -1.79526 | 291 ft | 20 kts | 239° |
| 2026-05-01 09:49 | 51.68384 | -1.79615 | 288 ft | 15 kts | 179° |
| 2026-05-01 09:49 | 51.68285 | -1.79612 | 286 ft | 14 kts | 178° |
| 2026-05-01 09:49 | 51.68197 | -1.79607 | 286 ft | 12 kts | 178° |
| 2026-05-01 09:49 | 51.68105 | -1.79608 | 286 ft | 13 kts | 194° |
| 2026-05-01 09:50 | 51.68053 | -1.79704 | 287 ft | 14 kts | 258° |
| 2026-05-01 09:50 | 51.68045 | -1.79905 | 288 ft | 22 kts | 268° |
| 2026-05-01 09:50 | 51.68039 | -1.80159 | 290 ft | 23 kts | 268° |
| 2026-05-01 09:50 | 51.68035 | -1.80403 | 293 ft | 20 kts | 267° |
| 2026-05-01 09:51 | 51.68039 | -1.80609 | 294 ft | 17 kts | 293° |
| 2026-05-01 09:51 | 51.68084 | -1.80759 | 297 ft | 13 kts | 296° |
| 2026-05-01 09:51 | 51.68119 | -1.80877 | 297 ft | 11 kts | 296° |
| 2026-05-01 09:51 | 51.68157 | -1.81003 | 300 ft | 12 kts | 296° |
| 2026-05-01 09:52 | 51.68189 | -1.81103 | 297 ft | 9 kts | 303° |
| 2026-05-01 09:52 | 51.68258 | -1.81177 | 301 ft | 13 kts | 354° |
| 2026-05-01 09:52 | 51.68305 | -1.81109 | 298 ft | 9 kts | 80° |
| 2026-05-01 09:52 | 51.68307 | -1.81072 | 298 ft | 0 kts | 89° |
| 2026-05-01 09:54 | 51.68308 | -1.81028 | 297 ft | 20 kts | 88° |
| 2026-05-01 09:55 | 51.68320 | -1.80454 | 294 ft | 84 kts | 87° |
| 2026-05-01 09:55 | 51.68348 | -1.79144 | 284 ft | 149 kts | 88° |
| 2026-05-01 09:55 | 51.68393 | -1.77187 | 407 ft | 202 kts | 87° |
| 2026-05-01 09:55 | 51.68448 | -1.74748 | 1072 ft | 233 kts | 89° |
| 2026-05-01 09:56 | 51.68525 | -1.71979 | 1858 ft | 259 kts | 90° |
| 2026-05-01 09:56 | 51.68588 | -1.69023 | 2671 ft | 269 kts | 91° |
| 2026-05-01 09:56 | 51.68681 | -1.65967 | 3426 ft | 280 kts | 84° |
| 2026-05-01 09:56 | 51.69518 | -1.63069 | 4198 ft | 298 kts | 49° |
| 2026-05-01 09:57 | 51.71312 | -1.61307 | 5015 ft | 314 kts | 15° |
| 2026-05-01 09:57 | 51.73519 | -1.61036 | 5820 ft | 323 kts | 359° |
| 2026-05-01 09:57 | 51.75819 | -1.61128 | 6609 ft | 342 kts | 358° |
| 2026-05-01 09:57 | 51.78243 | -1.61347 | 7337 ft | 353 kts | 350° |
| 2026-05-01 09:58 | 51.80483 | -1.62773 | 8100 ft | 354 kts | 321° |
| 2026-05-01 09:58 | 51.82065 | -1.65727 | 8928 ft | 348 kts | 292° |
| 2026-05-01 09:58 | 51.83019 | -1.69338 | 9727 ft | 355 kts | 294° |
| 2026-05-01 09:58 | 51.84313 | -1.72805 | 10488 ft | 363 kts | 298° |
| 2026-05-01 09:59 | 51.85601 | -1.76319 | 11232 ft | 365 kts | 296° |
| 2026-05-01 09:59 | 51.86873 | -1.79887 | 11990 ft | 368 kts | 296° |
| 2026-05-01 09:59 | 51.88155 | -1.83508 | 12756 ft | 373 kts | 296° |
| 2026-05-01 09:59 | 51.89447 | -1.87190 | 13556 ft | 379 kts | 295° |
| 2026-05-01 10:00 | 51.90755 | -1.90932 | 14303 ft | 384 kts | 295° |
| 2026-05-01 10:00 | 51.92061 | -1.94664 | 15009 ft | 387 kts | 295° |
| 2026-05-01 10:00 | 51.93385 | -1.98471 | 15751 ft | 389 kts | 295° |
| 2026-05-01 10:00 | 51.94716 | -2.02325 | 16499 ft | 395 kts | 295° |
| 2026-05-01 10:01 | 51.95990 | -2.06281 | 17288 ft | 395 kts | 289° |
| 2026-05-01 10:01 | 51.96727 | -2.10535 | 18115 ft | 393 kts | 276° |
| 2026-05-01 10:01 | 51.97309 | -2.14927 | 18860 ft | 403 kts | 278° |
| 2026-05-01 10:01 | 51.97917 | -2.19365 | 19581 ft | 403 kts | 278° |
| 2026-05-01 10:02 | 51.98504 | -2.23848 | 20321 ft | 410 kts | 277° |
| 2026-05-01 10:02 | 51.99089 | -2.28378 | 21066 ft | 412 kts | 277° |
| 2026-05-01 10:02 | 51.99671 | -2.32979 | 21843 ft | 419 kts | 277° |
| 2026-05-01 10:02 | 52.00250 | -2.37572 | 22625 ft | 422 kts | 278° |
| 2026-05-01 10:03 | 52.00841 | -2.42268 | 23439 ft | 429 kts | 278° |
| 2026-05-01 10:03 | 52.01423 | -2.46879 | 24171 ft | 429 kts | 278° |
| 2026-05-01 10:03 | 52.02018 | -2.51648 | 24878 ft | 436 kts | 278° |
| 2026-05-01 10:03 | 52.02611 | -2.56506 | 25610 ft | 439 kts | 277° |
| 2026-05-01 10:04 | 52.03195 | -2.61375 | 26342 ft | 443 kts | 277° |
| 2026-05-01 10:04 | 52.03780 | -2.66335 | 27104 ft | 449 kts | 277° |
| 2026-05-01 10:04 | 52.04368 | -2.71305 | 27879 ft | 450 kts | 277° |
| 2026-05-01 10:04 | 52.05032 | -2.76318 | 28659 ft | 458 kts | 284° |
| 2026-05-01 10:05 | 52.06156 | -2.81203 | 29502 ft | 464 kts | 290° |
| 2026-05-01 10:05 | 52.07650 | -2.85886 | 30337 ft | 469 kts | 296° |
| 2026-05-01 10:05 | 52.09166 | -2.90508 | 31062 ft | 472 kts | 295° |
| 2026-05-01 10:05 | 52.10741 | -2.95244 | 31851 ft | 478 kts | 295° |
| 2026-05-01 10:06 | 52.12340 | -3.00003 | 32627 ft | 482 kts | 296° |
| 2026-05-01 10:06 | 52.13961 | -3.04802 | 33423 ft | 485 kts | 296° |
| 2026-05-01 10:06 | 52.15592 | -3.09619 | 34233 ft | 486 kts | 296° |
| 2026-05-01 10:06 | 52.17230 | -3.14441 | 34952 ft | 487 kts | 296° |
| 2026-05-01 10:07 | 52.18871 | -3.19272 | 35707 ft | 486 kts | 296° |
| 2026-05-01 10:07 | 52.20506 | -3.24084 | 36490 ft | 485 kts | 296° |
| 2026-05-01 10:07 | 52.22133 | -3.28875 | 37311 ft | 482 kts | 296° |
| 2026-05-01 10:07 | 52.23722 | -3.33588 | 38136 ft | 479 kts | 296° |
| 2026-05-01 10:08 | 52.26894 | -3.43045 | 39553 ft | 472 kts | 296° |
| 2026-05-01 10:08 | 52.28483 | -3.47759 | 39889 ft | 477 kts | 296° |
| 2026-05-01 10:08 | 52.30104 | -3.52542 | 40038 ft | 486 kts | 296° |
| 2026-05-01 10:09 | 52.31758 | -3.57414 | 40115 ft | 495 kts | 296° |
| 2026-05-01 10:09 | 52.33447 | -3.62392 | 40143 ft | 506 kts | 296° |
| 2026-05-01 10:09 | 52.35166 | -3.67480 | 40166 ft | 517 kts | 296° |
| 2026-05-01 10:09 | 52.36915 | -3.72692 | 40186 ft | 529 kts | 296° |
| 2026-05-01 10:10 | 52.38678 | -3.77971 | 40198 ft | 544 kts | 296° |
| 2026-05-01 10:10 | 52.40511 | -3.83491 | 40206 ft | 559 kts | 296° |
| 2026-05-01 10:10 | 52.44228 | -3.94696 | 40200 ft | 552 kts | 296° |
| 2026-05-01 10:11 | 52.47913 | -4.05826 | 40197 ft | 559 kts | 296° |
| 2026-05-01 10:11 | 52.51597 | -4.16980 | 40184 ft | 556 kts | 295° |
| 2026-05-01 10:12 | 52.54655 | -4.26290 | 40179 ft | 556 kts | 295° |
| 2026-05-01 10:13 | 52.60726 | -4.44908 | 40180 ft | 556 kts | 295° |
| 2026-05-01 10:13 | 52.64369 | -4.56136 | 40192 ft | 560 kts | 295° |
| 2026-05-01 10:14 | 52.69837 | -4.73084 | 40184 ft | 559 kts | 295° |
| 2026-05-01 10:14 | 52.73449 | -4.84344 | 40184 ft | 557 kts | 295° |
| 2026-05-01 10:15 | 52.77065 | -4.95677 | 40186 ft | 560 kts | 295° |
| 2026-05-01 10:15 | 52.80671 | -5.07026 | 40199 ft | 557 kts | 294° |
| 2026-05-01 10:16 | 52.84282 | -5.18443 | 40186 ft | 560 kts | 294° |
| 2026-05-01 10:17 | 52.89641 | -5.35493 | 40182 ft | 560 kts | 294° |
| 2026-05-01 10:17 | 52.95002 | -5.52663 | 40163 ft | 561 kts | 294° |
| 2026-05-01 10:18 | 53.00339 | -5.69882 | 40155 ft | 560 kts | 294° |
| 2026-05-01 10:19 | 53.03866 | -5.81328 | 40149 ft | 559 kts | 294° |
| 2026-05-01 10:19 | 53.07393 | -5.92832 | 40144 ft | 560 kts | 294° |
| 2026-05-01 10:20 | 53.12667 | -6.10126 | 40136 ft | 556 kts | 294° |
| 2026-05-01 10:20 | 53.16222 | -6.21669 | 40121 ft | 564 kts | 298° |
| 2026-05-01 10:21 | 53.22180 | -6.38386 | 40117 ft | 564 kts | 298° |
| 2026-05-01 10:22 | 53.28166 | -6.55207 | 40126 ft | 563 kts | 298° |
| 2026-05-01 10:23 | 53.34124 | -6.72081 | 40139 ft | 563 kts | 297° |
| 2026-05-01 10:23 | 53.40086 | -6.88962 | 40114 ft | 563 kts | 297° |
| 2026-05-01 10:24 | 53.48058 | -7.11603 | 40115 ft | 564 kts | 297° |
| 2026-05-01 10:25 | 53.55925 | -7.34300 | 40120 ft | 566 kts | 297° |
| 2026-05-01 10:26 | 53.59867 | -7.45699 | 40113 ft | 563 kts | 297° |
| 2026-05-01 10:27 | 53.67722 | -7.68595 | 40108 ft | 564 kts | 297° |
| 2026-05-01 10:28 | 53.73548 | -7.85746 | 40121 ft | 564 kts | 297° |
| 2026-05-01 10:28 | 53.79406 | -8.03083 | 40101 ft | 565 kts | 297° |
| 2026-05-01 10:29 | 53.85229 | -8.20443 | 40095 ft | 564 kts | 297° |
| 2026-05-01 10:30 | 53.92930 | -8.43615 | 40115 ft | 566 kts | 297° |
| 2026-05-01 10:31 | 54.00640 | -8.67015 | 40089 ft | 568 kts | 297° |
| 2026-05-01 10:32 | 54.06388 | -8.84615 | 40099 ft | 567 kts | 296° |
| 2026-05-01 10:33 | 54.13988 | -9.08088 | 40098 ft | 568 kts | 296° |
| 2026-05-01 10:34 | 54.19668 | -9.25768 | 40087 ft | 566 kts | 296° |
| 2026-05-01 10:34 | 54.23417 | -9.37515 | 40085 ft | 565 kts | 296° |
| 2026-05-01 10:35 | 54.29049 | -9.55272 | 40082 ft | 567 kts | 296° |
| 2026-05-01 10:35 | 54.32784 | -9.67121 | 40098 ft | 567 kts | 296° |
| 2026-05-01 10:36 | 54.38348 | -9.84869 | 40090 ft | 565 kts | 296° |
| 2026-05-01 10:37 | 54.42061 | -9.96793 | 40090 ft | 567 kts | 296° |
| 2026-05-01 10:37 | 54.47514 | -10.14783 | 40091 ft | 567 kts | 295° |
| 2026-05-01 10:38 | 54.51033 | -10.26861 | 40097 ft | 565 kts | 295° |
| 2026-05-01 10:38 | 54.54534 | -10.38946 | 40088 ft | 567 kts | 295° |
| 2026-05-01 10:39 | 54.58007 | -10.51140 | 40091 ft | 567 kts | 294° |
| 2026-05-01 10:39 | 54.61452 | -10.63377 | 40086 ft | 565 kts | 294° |
| 2026-05-01 10:40 | 54.64890 | -10.75585 | 40084 ft | 568 kts | 294° |
| 2026-05-01 10:40 | 54.68341 | -10.87829 | 40097 ft | 565 kts | 294° |
| 2026-05-01 10:41 | 54.71744 | -10.99982 | 40087 ft | 566 kts | 294° |
| 2026-05-01 10:42 | 54.76838 | -11.18377 | 40089 ft | 564 kts | 294° |
| 2026-05-01 10:42 | 54.80210 | -11.30634 | 40092 ft | 564 kts | 294° |
| 2026-05-01 10:43 | 54.83564 | -11.42858 | 40094 ft | 564 kts | 294° |
| 2026-05-01 10:43 | 54.86921 | -11.55154 | 40094 ft | 563 kts | 294° |
| 2026-05-01 10:44 | 54.90264 | -11.67486 | 40088 ft | 565 kts | 294° |
| 2026-05-01 10:44 | 54.93582 | -11.79806 | 40087 ft | 563 kts | 293° |
| 2026-05-01 10:45 | 54.96902 | -11.92179 | 40092 ft | 565 kts | 293° |
| 2026-05-01 10:45 | 55.00184 | -12.04479 | 40097 ft | 563 kts | 293° |
| 2026-05-01 10:46 | 55.03493 | -12.16944 | 40104 ft | 570 kts | 292° |
| 2026-05-01 10:46 | 55.06785 | -12.29428 | 40104 ft | 564 kts | 293° |
| 2026-05-01 10:47 | 55.10059 | -12.41900 | 40110 ft | 567 kts | 293° |
| 2026-05-01 10:47 | 55.13288 | -12.54264 | 40108 ft | 567 kts | 292° |
| 2026-05-01 10:48 | 55.16523 | -12.66724 | 40118 ft | 561 kts | 292° |
| 2026-05-01 10:48 | 55.19203 | -12.77130 | 40118 ft | 558 kts | 293° |
| 2026-05-01 10:49 | 55.22394 | -12.89534 | 40128 ft | 562 kts | 293° |
| 2026-05-01 10:49 | 55.26093 | -13.04023 | 40128 ft | 557 kts | 293° |
| 2026-05-01 10:50 | 55.29255 | -13.16478 | 40137 ft | 561 kts | 293° |
| 2026-05-01 10:50 | 55.31869 | -13.26836 | 40136 ft | 556 kts | 293° |
| 2026-05-01 10:51 | 55.34999 | -13.39288 | 40148 ft | 561 kts | 293° |
| 2026-05-01 10:51 | 55.38147 | -13.51896 | 40153 ft | 561 kts | 293° |
| 2026-05-01 10:52 | 55.41801 | -13.66603 | 40156 ft | 562 kts | 293° |
| 2026-05-01 10:52 | 55.44391 | -13.77101 | 40156 ft | 561 kts | 293° |
| 2026-05-01 10:53 | 55.47498 | -13.89758 | 40153 ft | 561 kts | 293° |
| 2026-05-01 10:53 | 55.50700 | -14.02288 | 40168 ft | 559 kts | 295° |
| 2026-05-01 10:54 | 55.54026 | -14.14833 | 40170 ft | 571 kts | 295° |
| 2026-05-01 10:54 | 55.57348 | -14.27382 | 40173 ft | 565 kts | 295° |
| 2026-05-01 10:55 | 55.60651 | -14.39969 | 40175 ft | 569 kts | 295° |
| 2026-05-01 10:55 | 55.63976 | -14.52574 | 40183 ft | 565 kts | 295° |
| 2026-05-01 10:56 | 55.67302 | -14.65160 | 40188 ft | 567 kts | 295° |
| 2026-05-01 10:56 | 55.70574 | -14.77660 | 40188 ft | 554 kts | 294° |
| 2026-05-01 10:57 | 55.73808 | -14.90177 | 40191 ft | 558 kts | 294° |
| 2026-05-01 10:57 | 55.77031 | -15.02714 | 40196 ft | 561 kts | 294° |
| 2026-05-01 10:58 | 55.80255 | -15.15263 | 40198 ft | 561 kts | 294° |
| 2026-05-01 10:58 | 55.83482 | -15.27869 | 40199 ft | 558 kts | 294° |
| 2026-05-01 10:59 | 55.86657 | -15.40386 | 40194 ft | 558 kts | 294° |
| 2026-05-01 10:59 | 55.89790 | -15.52824 | 40200 ft | 547 kts | 294° |
| 2026-05-01 11:00 | 55.92919 | -15.65308 | 40201 ft | 551 kts | 294° |
| 2026-05-01 11:00 | 55.96029 | -15.77767 | 40205 ft | 551 kts | 293° |
| 2026-05-01 11:01 | 55.99129 | -15.90260 | 40210 ft | 551 kts | 293° |
| 2026-05-01 11:01 | 56.02194 | -16.02690 | 40207 ft | 549 kts | 293° |
| 2026-05-01 11:02 | 56.05257 | -16.15196 | 40205 ft | 545 kts | 293° |
| 2026-05-01 11:02 | 56.08290 | -16.27620 | 40208 ft | 542 kts | 293° |
| 2026-05-01 11:03 | 56.11307 | -16.40060 | 40215 ft | 546 kts | 293° |
| 2026-05-01 11:03 | 56.14326 | -16.52585 | 40214 ft | 546 kts | 293° |
| 2026-05-01 11:04 | 56.17287 | -16.64942 | 40219 ft | 546 kts | 293° |
| 2026-05-01 11:04 | 56.20265 | -16.77437 | 40217 ft | 539 kts | 293° |
| 2026-05-01 11:05 | 56.23207 | -16.89850 | 40217 ft | 540 kts | 293° |
| 2026-05-01 11:05 | 56.26108 | -17.02160 | 40222 ft | 539 kts | 292° |
| 2026-05-01 11:06 | 56.29013 | -17.14570 | 40222 ft | 540 kts | 292° |
| 2026-05-01 11:06 | 56.31913 | -17.27021 | 40224 ft | 537 kts | 292° |
| 2026-05-01 11:07 | 56.36232 | -17.45701 | 40221 ft | 539 kts | 292° |
| 2026-05-01 11:07 | 56.39070 | -17.58073 | 40218 ft | 535 kts | 292° |
| 2026-05-01 11:08 | 56.41908 | -17.70506 | 40223 ft | 538 kts | 292° |
| 2026-05-01 11:09 | 56.46146 | -17.89224 | 40221 ft | 538 kts | 292° |
| 2026-05-01 11:09 | 56.48963 | -18.01749 | 40219 ft | 535 kts | 291° |
| 2026-05-01 11:10 | 56.53136 | -18.20452 | 40220 ft | 536 kts | 291° |
| 2026-05-01 11:10 | 56.55911 | -18.32983 | 40222 ft | 538 kts | 291° |
| 2026-05-01 11:11 | 56.58683 | -18.45573 | 40224 ft | 538 kts | 291° |
| 2026-05-01 11:11 | 56.61420 | -18.58083 | 40222 ft | 538 kts | 291° |
| 2026-05-01 11:12 | 56.64178 | -18.70759 | 40219 ft | 538 kts | 291° |
| 2026-05-01 11:12 | 56.66904 | -18.83372 | 40222 ft | 538 kts | 291° |
| 2026-05-01 11:13 | 56.69623 | -18.96027 | 40217 ft | 534 kts | 291° |
| 2026-05-01 11:13 | 56.72322 | -19.08668 | 40221 ft | 537 kts | 291° |
| 2026-05-01 11:14 | 56.74989 | -19.21231 | 40223 ft | 533 kts | 291° |
| 2026-05-01 11:14 | 56.77653 | -19.33867 | 40220 ft | 536 kts | 291° |
| 2026-05-01 11:15 | 56.80303 | -19.46513 | 40220 ft | 533 kts | 290° |
| 2026-05-01 11:15 | 56.82949 | -19.59221 | 40220 ft | 535 kts | 290° |
| 2026-05-01 11:16 | 56.85556 | -19.71815 | 40219 ft | 533 kts | 290° |
| 2026-05-01 11:16 | 56.88145 | -19.84397 | 40227 ft | 530 kts | 290° |
| 2026-05-01 11:17 | 56.90721 | -19.96995 | 40226 ft | 524 kts | 290° |
| 2026-05-01 11:17 | 56.93277 | -20.09584 | 40222 ft | 528 kts | 290° |
| 2026-05-01 11:18 | 56.95815 | -20.22163 | 40221 ft | 527 kts | 290° |
| 2026-05-01 11:18 | 56.98330 | -20.34701 | 40220 ft | 526 kts | 290° |
| 2026-05-01 11:19 | 57.00842 | -20.47306 | 40219 ft | 525 kts | 290° |
| 2026-05-01 11:19 | 57.03325 | -20.59841 | 40222 ft | 525 kts | 290° |
| 2026-05-01 11:20 | 57.05799 | -20.72417 | 40219 ft | 522 kts | 290° |
| 2026-05-01 11:20 | 57.08245 | -20.84934 | 40218 ft | 525 kts | 290° |
| 2026-05-01 11:21 | 57.10694 | -20.97539 | 40217 ft | 523 kts | 290° |
| 2026-05-01 11:21 | 57.13133 | -21.10177 | 40225 ft | 524 kts | 290° |
| 2026-05-01 11:22 | 57.15554 | -21.22807 | 40218 ft | 522 kts | 289° |
| 2026-05-01 11:22 | 57.17932 | -21.35291 | 40223 ft | 521 kts | 289° |
| 2026-05-01 11:23 | 57.20335 | -21.47985 | 40227 ft | 518 kts | 289° |
| 2026-05-01 11:23 | 57.22684 | -21.60481 | 40223 ft | 521 kts | 289° |
| 2026-05-01 11:24 | 57.25037 | -21.73084 | 40227 ft | 518 kts | 289° |
| 2026-05-01 11:25 | 57.28546 | -21.92033 | 40224 ft | 518 kts | 289° |
| 2026-05-01 11:25 | 57.31999 | -22.10856 | 40222 ft | 517 kts | 289° |
| 2026-05-01 11:26 | 57.35440 | -22.29818 | 40234 ft | 517 kts | 288° |
| 2026-05-01 11:27 | 57.37715 | -22.42457 | 40230 ft | 519 kts | 288° |
| 2026-05-01 11:27 | 57.39980 | -22.55129 | 40226 ft | 516 kts | 288° |
| 2026-05-01 11:28 | 57.42216 | -22.67727 | 40232 ft | 519 kts | 288° |
| 2026-05-01 11:28 | 57.44451 | -22.80399 | 40220 ft | 514 kts | 288° |
| 2026-05-01 11:29 | 57.47776 | -22.99428 | 40230 ft | 515 kts | 288° |
| 2026-05-01 11:30 | 57.51064 | -23.18431 | 40233 ft | 516 kts | 288° |
| 2026-05-01 11:30 | 57.53243 | -23.31143 | 40235 ft | 518 kts | 288° |
| 2026-05-01 11:31 | 57.55412 | -23.43880 | 40232 ft | 515 kts | 288° |
| 2026-05-01 11:31 | 57.57568 | -23.56635 | 40230 ft | 516 kts | 287° |
| 2026-05-01 11:32 | 57.59706 | -23.69369 | 40231 ft | 516 kts | 287° |
| 2026-05-01 11:32 | 57.61807 | -23.81979 | 40233 ft | 514 kts | 287° |
| 2026-05-01 11:33 | 57.63926 | -23.94787 | 40241 ft | 519 kts | 287° |
| 2026-05-01 11:33 | 57.66029 | -24.07591 | 40236 ft | 516 kts | 287° |
| 2026-05-01 11:34 | 57.68125 | -24.20447 | 40240 ft | 516 kts | 287° |
| 2026-05-01 11:34 | 57.70187 | -24.33188 | 40227 ft | 516 kts | 287° |
| 2026-05-01 11:35 | 57.72249 | -24.46023 | 40239 ft | 514 kts | 287° |
| 2026-05-01 11:35 | 57.74298 | -24.58874 | 40243 ft | 516 kts | 287° |
| 2026-05-01 11:36 | 57.76333 | -24.71734 | 40246 ft | 516 kts | 286° |
| 2026-05-01 11:36 | 57.78362 | -24.84652 | 40246 ft | 515 kts | 286° |
| 2026-05-01 11:37 | 57.80360 | -24.97469 | 40246 ft | 518 kts | 286° |
| 2026-05-01 11:37 | 57.82360 | -25.10393 | 40223 ft | 515 kts | 286° |
| 2026-05-01 11:38 | 57.84342 | -25.23306 | 40237 ft | 515 kts | 286° |
| 2026-05-01 11:38 | 57.86309 | -25.36216 | 40236 ft | 515 kts | 286° |
| 2026-05-01 11:39 | 57.88253 | -25.49079 | 40257 ft | 515 kts | 286° |
| 2026-05-01 11:39 | 57.90198 | -25.62050 | 40242 ft | 517 kts | 286° |
| 2026-05-01 11:40 | 57.92131 | -25.75040 | 40240 ft | 515 kts | 285° |
| 2026-05-01 11:40 | 57.94053 | -25.88057 | 40240 ft | 516 kts | 285° |
| 2026-05-01 11:41 | 57.95955 | -26.01049 | 40238 ft | 515 kts | 285° |
| 2026-05-01 11:41 | 57.97839 | -26.14016 | 40239 ft | 516 kts | 285° |
| 2026-05-01 11:42 | 57.99716 | -26.27039 | 40244 ft | 517 kts | 285° |
| 2026-05-01 11:42 | 58.01586 | -26.40123 | 40251 ft | 515 kts | 285° |
| 2026-05-01 11:43 | 58.03438 | -26.53192 | 40246 ft | 517 kts | 285° |
| 2026-05-01 11:43 | 58.05269 | -26.66211 | 40240 ft | 515 kts | 285° |
| 2026-05-01 11:44 | 58.07998 | -26.85832 | 40248 ft | 514 kts | 285° |
| 2026-05-01 11:44 | 58.09803 | -26.98942 | 40248 ft | 516 kts | 285° |
| 2026-05-01 11:45 | 58.11591 | -27.12044 | 40248 ft | 515 kts | 284° |
| 2026-05-01 11:45 | 58.13371 | -27.25193 | 40254 ft | 514 kts | 284° |
| 2026-05-01 11:46 | 58.15118 | -27.38216 | 40250 ft | 516 kts | 284° |
| 2026-05-01 11:46 | 58.16869 | -27.51375 | 40228 ft | 513 kts | 284° |
| 2026-05-01 11:47 | 58.18600 | -27.64498 | 40247 ft | 514 kts | 284° |
| 2026-05-01 11:47 | 58.20320 | -27.77657 | 40247 ft | 513 kts | 284° |
| 2026-05-01 11:48 | 58.22011 | -27.90714 | 40252 ft | 515 kts | 284° |
| 2026-05-01 11:48 | 58.23704 | -28.03897 | 40265 ft | 513 kts | 284° |
| 2026-05-01 11:49 | 58.25379 | -28.17054 | 40257 ft | 514 kts | 284° |
| 2026-05-01 11:49 | 58.27041 | -28.30232 | 40253 ft | 512 kts | 284° |
| 2026-05-01 11:50 | 58.28675 | -28.43309 | 40247 ft | 512 kts | 284° |
| 2026-05-01 11:50 | 58.30305 | -28.56469 | 40250 ft | 512 kts | 284° |
| 2026-05-01 11:51 | 58.31921 | -28.69637 | 40257 ft | 512 kts | 283° |
| 2026-05-01 11:51 | 58.33527 | -28.82853 | 40254 ft | 512 kts | 283° |
| 2026-05-01 11:52 | 58.35106 | -28.95963 | 40252 ft | 512 kts | 283° |
| 2026-05-01 11:52 | 58.36685 | -29.09197 | 40252 ft | 512 kts | 283° |
| 2026-05-01 11:53 | 58.38246 | -29.22413 | 40245 ft | 511 kts | 283° |
| 2026-05-01 11:53 | 58.39793 | -29.35633 | 40257 ft | 512 kts | 283° |
| 2026-05-01 11:54 | 58.41328 | -29.48875 | 40255 ft | 511 kts | 283° |
| 2026-05-01 11:54 | 58.42836 | -29.62024 | 40256 ft | 512 kts | 283° |
| 2026-05-01 11:55 | 58.44345 | -29.75301 | 40273 ft | 511 kts | 283° |
| 2026-05-01 11:55 | 58.45832 | -29.88524 | 40257 ft | 510 kts | 282° |
| 2026-05-01 11:56 | 58.47310 | -30.01789 | 40249 ft | 509 kts | 282° |
| 2026-05-01 11:56 | 58.48759 | -30.14931 | 40256 ft | 511 kts | 282° |
| 2026-05-01 11:57 | 58.50208 | -30.28202 | 40255 ft | 508 kts | 282° |
| 2026-05-01 11:57 | 58.51644 | -30.41492 | 40261 ft | 511 kts | 282° |
| 2026-05-01 11:58 | 58.53054 | -30.54684 | 40259 ft | 509 kts | 282° |
| 2026-05-01 11:59 | 58.55155 | -30.74606 | 40269 ft | 507 kts | 282° |
| 2026-05-01 11:59 | 58.56540 | -30.87903 | 40247 ft | 508 kts | 282° |
| 2026-05-01 12:00 | 58.58578 | -31.07745 | 40265 ft | 509 kts | 281° |
| 2026-05-01 12:01 | 58.60596 | -31.27703 | 40261 ft | 509 kts | 281° |
| 2026-05-01 12:01 | 58.61922 | -31.41014 | 40265 ft | 508 kts | 281° |
| 2026-05-01 12:02 | 58.63237 | -31.54353 | 40271 ft | 507 kts | 281° |
| 2026-05-01 12:02 | 58.64533 | -31.67646 | 40265 ft | 509 kts | 281° |
| 2026-05-01 12:03 | 58.65807 | -31.80879 | 40260 ft | 506 kts | 281° |
| 2026-05-01 12:03 | 58.67079 | -31.94229 | 40260 ft | 508 kts | 281° |
| 2026-05-01 12:04 | 58.68334 | -32.07555 | 40265 ft | 508 kts | 281° |
| 2026-05-01 12:04 | 58.69569 | -32.20833 | 40258 ft | 506 kts | 280° |
| 2026-05-01 12:05 | 58.70786 | -32.34062 | 40262 ft | 509 kts | 280° |
| 2026-05-01 12:05 | 58.72600 | -32.54076 | 40247 ft | 507 kts | 280° |
| 2026-05-01 12:06 | 58.73793 | -32.67448 | 40259 ft | 505 kts | 280° |
| 2026-05-01 12:06 | 58.74963 | -32.80723 | 40263 ft | 508 kts | 279° |
| 2026-05-01 12:07 | 58.76126 | -32.94087 | 40265 ft | 506 kts | 279° |
| 2026-05-01 12:07 | 58.77279 | -33.07491 | 40267 ft | 507 kts | 279° |
| 2026-05-01 12:08 | 58.78413 | -33.20862 | 40264 ft | 507 kts | 279° |
| 2026-05-01 12:08 | 58.79537 | -33.34272 | 40268 ft | 503 kts | 279° |
| 2026-05-01 12:09 | 58.80636 | -33.47556 | 40264 ft | 508 kts | 279° |
| 2026-05-01 12:09 | 58.81729 | -33.60957 | 40270 ft | 505 kts | 279° |
| 2026-05-01 12:10 | 58.83344 | -33.81090 | 40263 ft | 504 kts | 279° |
| 2026-05-01 12:11 | 58.84922 | -34.01151 | 40258 ft | 505 kts | 278° |
| 2026-05-01 12:11 | 58.85959 | -34.14573 | 40267 ft | 507 kts | 278° |
| 2026-05-01 12:12 | 58.86983 | -34.28018 | 40272 ft | 504 kts | 278° |
| 2026-05-01 12:12 | 58.87992 | -34.41460 | 40262 ft | 505 kts | 278° |
| 2026-05-01 12:13 | 58.88986 | -34.54886 | 40268 ft | 506 kts | 278° |
| 2026-05-01 12:13 | 58.89961 | -34.68257 | 40266 ft | 504 kts | 278° |
| 2026-05-01 12:14 | 58.90928 | -34.81703 | 40266 ft | 506 kts | 278° |
| 2026-05-01 12:14 | 58.91880 | -34.95158 | 40270 ft | 504 kts | 278° |
| 2026-05-01 12:15 | 58.92820 | -35.08635 | 40280 ft | 506 kts | 278° |
| 2026-05-01 12:15 | 58.93739 | -35.22022 | 40263 ft | 506 kts | 277° |
| 2026-05-01 12:16 | 58.94653 | -35.35552 | 40268 ft | 505 kts | 277° |
| 2026-05-01 12:16 | 58.95550 | -35.49038 | 40272 ft | 507 kts | 277° |
| 2026-05-01 12:17 | 58.96436 | -35.62583 | 40268 ft | 505 kts | 277° |
| 2026-05-01 12:17 | 58.97307 | -35.76114 | 40271 ft | 507 kts | 277° |
| 2026-05-01 12:18 | 58.98157 | -35.89556 | 40271 ft | 506 kts | 277° |
| 2026-05-01 12:18 | 58.99001 | -36.03127 | 40257 ft | 507 kts | 277° |
| 2026-05-01 12:19 | 58.99830 | -36.16697 | 40260 ft | 507 kts | 277° |
| 2026-05-01 12:19 | 59.00647 | -36.30294 | 40263 ft | 506 kts | 276° |
| 2026-05-01 12:20 | 59.01442 | -36.43771 | 40267 ft | 508 kts | 276° |
| 2026-05-01 12:20 | 59.02229 | -36.57376 | 40266 ft | 506 kts | 276° |
| 2026-05-01 12:21 | 59.03002 | -36.70978 | 40264 ft | 508 kts | 276° |
| 2026-05-01 12:21 | 59.03760 | -36.84573 | 40264 ft | 506 kts | 276° |
| 2026-05-01 12:22 | 59.04507 | -36.98233 | 40260 ft | 509 kts | 276° |
| 2026-05-01 12:22 | 59.05232 | -37.11768 | 40262 ft | 508 kts | 276° |
| 2026-05-01 12:23 | 59.05951 | -37.25442 | 40259 ft | 507 kts | 276° |
| 2026-05-01 12:23 | 59.06653 | -37.39092 | 40261 ft | 509 kts | 276° |
| 2026-05-01 12:24 | 59.07341 | -37.52747 | 40257 ft | 506 kts | 276° |
| 2026-05-01 12:24 | 59.08012 | -37.66347 | 40255 ft | 509 kts | 275° |
| 2026-05-01 12:25 | 59.08997 | -37.86850 | 40251 ft | 509 kts | 275° |
| 2026-05-01 12:26 | 59.09635 | -38.00529 | 40252 ft | 507 kts | 275° |
| 2026-05-01 12:26 | 59.10564 | -38.21057 | 40253 ft | 507 kts | 275° |
| 2026-05-01 12:27 | 59.11460 | -38.41531 | 40256 ft | 508 kts | 275° |
| 2026-05-01 12:28 | 59.12325 | -38.62082 | 40259 ft | 509 kts | 275° |
| 2026-05-01 12:29 | 59.13155 | -38.82567 | 40261 ft | 509 kts | 275° |
| 2026-05-01 12:29 | 59.13957 | -39.03151 | 40265 ft | 510 kts | 274° |
| 2026-05-01 12:30 | 59.14725 | -39.23734 | 40263 ft | 510 kts | 274° |
| 2026-05-01 12:31 | 59.15219 | -39.37481 | 40267 ft | 507 kts | 274° |
| 2026-05-01 12:31 | 59.15697 | -39.51146 | 40260 ft | 509 kts | 274° |
| 2026-05-01 12:32 | 59.16160 | -39.64818 | 40269 ft | 509 kts | 274° |
| 2026-05-01 12:32 | 59.16833 | -39.85489 | 40262 ft | 509 kts | 274° |
| 2026-05-01 12:33 | 59.17264 | -39.99295 | 40259 ft | 508 kts | 274° |
| 2026-05-01 12:33 | 59.17676 | -40.12982 | 40261 ft | 511 kts | 274° |
| 2026-05-01 12:34 | 59.18077 | -40.26767 | 40263 ft | 508 kts | 274° |
| 2026-05-01 12:34 | 59.18464 | -40.40580 | 40263 ft | 510 kts | 273° |
| 2026-05-01 12:35 | 59.18835 | -40.54347 | 40281 ft | 510 kts | 273° |
| 2026-05-01 12:35 | 59.19191 | -40.68110 | 40267 ft | 509 kts | 273° |
| 2026-05-01 12:36 | 59.19534 | -40.81929 | 40270 ft | 512 kts | 273° |
| 2026-05-01 12:36 | 59.19862 | -40.95751 | 40268 ft | 509 kts | 273° |
| 2026-05-01 12:37 | 59.20176 | -41.09594 | 40267 ft | 511 kts | 273° |
| 2026-05-01 12:37 | 59.20473 | -41.23323 | 40274 ft | 511 kts | 273° |
| 2026-05-01 12:38 | 59.20759 | -41.37158 | 40259 ft | 507 kts | 272° |
| 2026-05-01 12:38 | 59.21028 | -41.50962 | 40287 ft | 511 kts | 272° |
| 2026-05-01 12:39 | 59.21282 | -41.64762 | 40272 ft | 509 kts | 272° |
| 2026-05-01 12:39 | 59.21522 | -41.78592 | 40270 ft | 508 kts | 272° |
| 2026-05-01 12:40 | 59.21748 | -41.92410 | 40278 ft | 511 kts | 272° |
| 2026-05-01 12:40 | 59.21957 | -42.06128 | 40269 ft | 508 kts | 272° |
| 2026-05-01 12:41 | 59.22153 | -42.19960 | 40280 ft | 510 kts | 272° |
| 2026-05-01 12:41 | 59.22333 | -42.33693 | 40279 ft | 506 kts | 271° |
| 2026-05-01 12:42 | 59.22498 | -42.47366 | 40279 ft | 504 kts | 271° |
| 2026-05-01 12:42 | 59.22650 | -42.61094 | 40280 ft | 507 kts | 271° |
| 2026-05-01 12:43 | 59.22787 | -42.74799 | 40273 ft | 506 kts | 271° |
| 2026-05-01 12:43 | 59.22911 | -42.88569 | 40272 ft | 505 kts | 271° |
| 2026-05-01 12:44 | 59.23018 | -43.02289 | 40286 ft | 507 kts | 271° |
| 2026-05-01 12:45 | 59.23191 | -43.29687 | 40319 ft | 506 kts | 271° |
| 2026-05-01 12:45 | 59.23256 | -43.43387 | 40303 ft | 504 kts | 271° |
| 2026-05-01 12:46 | 59.23306 | -43.57116 | 40294 ft | 505 kts | 270° |
| 2026-05-01 12:46 | 59.23341 | -43.70718 | 40305 ft | 506 kts | 270° |
| 2026-05-01 12:47 | 59.23363 | -43.84438 | 40305 ft | 503 kts | 270° |
| 2026-05-01 12:47 | 59.23370 | -43.98153 | 40282 ft | 506 kts | 270° |
| 2026-05-01 12:48 | 59.23362 | -44.11863 | 40310 ft | 506 kts | 270° |
| 2026-05-01 12:48 | 59.23340 | -44.25624 | 40323 ft | 505 kts | 270° |
| 2026-05-01 12:49 | 59.23304 | -44.39269 | 40323 ft | 507 kts | 270° |
| 2026-05-01 12:49 | 59.23253 | -44.53002 | 40322 ft | 505 kts | 270° |
| 2026-05-01 12:50 | 59.23188 | -44.66774 | 40323 ft | 506 kts | 270° |
| 2026-05-01 12:50 | 59.23108 | -44.80497 | 40329 ft | 507 kts | 269° |
| 2026-05-01 12:51 | 59.23016 | -44.94168 | 40316 ft | 506 kts | 269° |
| 2026-05-01 12:52 | 59.22845 | -45.14842 | 40352 ft | 506 kts | 269° |
| 2026-05-01 12:52 | 59.22644 | -45.35523 | 40336 ft | 506 kts | 269° |
| 2026-05-01 12:53 | 59.22411 | -45.56099 | 40337 ft | 506 kts | 269° |
| 2026-05-01 12:54 | 59.22236 | -45.69871 | 40332 ft | 509 kts | 269° |
| 2026-05-01 12:54 | 59.21947 | -45.90559 | 40341 ft | 510 kts | 268° |
| 2026-05-01 12:55 | 59.21624 | -46.11249 | 40355 ft | 510 kts | 268° |
| 2026-05-01 12:56 | 59.21393 | -46.24929 | 40348 ft | 507 kts | 268° |
| 2026-05-01 12:56 | 59.21145 | -46.38750 | 40347 ft | 508 kts | 268° |
| 2026-05-01 12:57 | 59.20884 | -46.52507 | 40350 ft | 509 kts | 268° |
| 2026-05-01 12:57 | 59.20463 | -46.73216 | 40345 ft | 511 kts | 268° |
| 2026-05-01 12:58 | 59.20165 | -46.86951 | 40349 ft | 508 kts | 267° |
| 2026-05-01 12:59 | 59.19688 | -47.07674 | 40350 ft | 508 kts | 267° |
| 2026-05-01 12:59 | 59.19178 | -47.28397 | 40350 ft | 509 kts | 267° |
| 2026-05-01 13:00 | 59.18639 | -47.49010 | 40353 ft | 509 kts | 267° |
| 2026-05-01 13:01 | 59.18063 | -47.69732 | 40349 ft | 511 kts | 266° |
| 2026-05-01 13:02 | 59.17452 | -47.90489 | 40368 ft | 511 kts | 266° |
| 2026-05-01 13:07 | 59.11985 | -49.42088 | 40348 ft | 513 kts | 265° |
| 2026-05-01 13:08 | 59.11398 | -49.55904 | 40350 ft | 510 kts | 264° |
| 2026-05-01 13:08 | 59.10797 | -49.69691 | 40350 ft | 512 kts | 264° |
| 2026-05-01 13:09 | 59.10182 | -49.83480 | 40357 ft | 512 kts | 264° |
| 2026-05-01 13:09 | 59.09555 | -49.97178 | 40350 ft | 510 kts | 264° |
| 2026-05-01 13:10 | 59.08911 | -50.10939 | 40348 ft | 513 kts | 264° |
| 2026-05-01 13:10 | 59.08253 | -50.24698 | 40342 ft | 510 kts | 264° |
| 2026-05-01 13:11 | 59.07579 | -50.38470 | 40346 ft | 511 kts | 264° |
| 2026-05-01 13:11 | 59.06896 | -50.52113 | 40349 ft | 513 kts | 264° |
| 2026-05-01 13:12 | 59.06193 | -50.65877 | 40369 ft | 510 kts | 263° |
| 2026-05-01 13:12 | 59.05488 | -50.79396 | 40353 ft | 512 kts | 263° |
| 2026-05-01 13:13 | 59.04883 | -50.90788 | 40339 ft | 511 kts | 263° |
| 2026-05-01 13:13 | 59.04138 | -51.04539 | 40336 ft | 510 kts | 263° |
| 2026-05-01 13:14 | 59.03256 | -51.20484 | 40336 ft | 512 kts | 263° |
| 2026-05-01 13:14 | 59.02608 | -51.31965 | 40338 ft | 510 kts | 263° |
| 2026-05-01 13:15 | 59.01826 | -51.45601 | 40334 ft | 511 kts | 263° |
| 2026-05-01 13:15 | 59.01027 | -51.59276 | 40350 ft | 512 kts | 262° |
| 2026-05-01 13:16 | 59.00211 | -51.72997 | 40339 ft | 510 kts | 262° |
| 2026-05-01 13:16 | 58.99380 | -51.86693 | 40335 ft | 512 kts | 262° |
| 2026-05-01 13:17 | 58.97682 | -52.13973 | 40334 ft | 510 kts | 262° |
| 2026-05-01 13:18 | 58.96367 | -52.34471 | 40325 ft | 510 kts | 262° |
| 2026-05-01 13:18 | 58.95472 | -52.48127 | 40353 ft | 513 kts | 262° |
| 2026-05-01 13:19 | 58.94569 | -52.61698 | 40332 ft | 510 kts | 261° |
| 2026-05-01 13:20 | 58.93176 | -52.82190 | 40307 ft | 511 kts | 261° |
| 2026-05-01 13:20 | 58.92232 | -52.95818 | 40318 ft | 512 kts | 261° |
| 2026-05-01 13:21 | 58.90788 | -53.16259 | 40324 ft | 512 kts | 261° |
| 2026-05-01 13:21 | 58.89813 | -53.29784 | 40320 ft | 510 kts | 261° |
| 2026-05-01 13:22 | 58.88818 | -53.43408 | 40331 ft | 514 kts | 261° |
| 2026-05-01 13:22 | 58.87806 | -53.57043 | 40321 ft | 511 kts | 260° |
| 2026-05-01 13:23 | 58.86780 | -53.70661 | 40312 ft | 512 kts | 260° |
| 2026-05-01 13:23 | 58.85740 | -53.84271 | 40310 ft | 513 kts | 260° |
| 2026-05-01 13:24 | 58.84693 | -53.97779 | 40309 ft | 511 kts | 260° |
| 2026-05-01 13:25 | 58.83084 | -54.18174 | 40307 ft | 511 kts | 259° |
| 2026-05-01 13:25 | 58.81995 | -54.31760 | 40320 ft | 514 kts | 259° |
| 2026-05-01 13:26 | 58.80895 | -54.45273 | 40306 ft | 512 kts | 259° |
| 2026-05-01 13:26 | 58.79773 | -54.58886 | 40305 ft | 515 kts | 259° |
| 2026-05-01 13:27 | 58.78638 | -54.72473 | 40298 ft | 513 kts | 259° |
| 2026-05-01 13:27 | 58.76905 | -54.92857 | 40296 ft | 512 kts | 259° |
| 2026-05-01 13:28 | 58.75152 | -55.13119 | 40295 ft | 512 kts | 258° |
| 2026-05-01 13:29 | 58.72746 | -55.40288 | 40290 ft | 516 kts | 258° |
| 2026-05-01 13:31 | 58.69033 | -55.80940 | 40285 ft | 515 kts | 258° |
| 2026-05-01 13:32 | 58.65833 | -56.14855 | 40276 ft | 516 kts | 257° |
| 2026-05-01 13:33 | 58.62553 | -56.48595 | 40272 ft | 516 kts | 257° |
| 2026-05-01 13:34 | 58.59852 | -56.75674 | 40262 ft | 518 kts | 257° |
| 2026-05-01 13:35 | 58.57801 | -56.95859 | 40274 ft | 519 kts | 256° |
| 2026-05-01 13:36 | 58.55699 | -57.16182 | 40262 ft | 520 kts | 256° |
| 2026-05-01 13:36 | 58.53561 | -57.36523 | 40250 ft | 521 kts | 256° |
| 2026-05-01 13:37 | 58.52127 | -57.49986 | 40247 ft | 518 kts | 256° |
| 2026-05-01 13:37 | 58.50670 | -57.63519 | 40239 ft | 520 kts | 256° |
| 2026-05-01 13:38 | 58.48458 | -57.83806 | 40256 ft | 521 kts | 256° |
| 2026-05-01 13:39 | 58.46915 | -57.97340 | 40237 ft | 519 kts | 251° |
| 2026-05-01 13:39 | 58.44912 | -58.10558 | 40238 ft | 522 kts | 251° |
| 2026-05-01 13:40 | 58.42878 | -58.23819 | 40229 ft | 522 kts | 251° |
| 2026-05-01 13:40 | 58.40807 | -58.37071 | 40223 ft | 520 kts | 251° |
| 2026-05-01 13:41 | 58.38729 | -58.50322 | 40218 ft | 522 kts | 251° |
| 2026-05-01 13:41 | 58.36642 | -58.63425 | 40216 ft | 521 kts | 250° |
| 2026-05-01 13:42 | 58.34487 | -58.76629 | 40233 ft | 523 kts | 250° |
| 2026-05-01 13:42 | 58.32303 | -58.89891 | 40209 ft | 522 kts | 250° |
| 2026-05-01 13:43 | 58.30128 | -59.03137 | 40207 ft | 525 kts | 250° |
| 2026-05-01 13:43 | 58.27956 | -59.16343 | 40204 ft | 525 kts | 250° |
| 2026-05-01 13:44 | 58.25768 | -59.29472 | 40202 ft | 523 kts | 250° |
| 2026-05-01 13:44 | 58.23542 | -59.42657 | 40200 ft | 525 kts | 250° |
| 2026-05-01 13:45 | 58.21303 | -59.55839 | 40193 ft | 528 kts | 250° |
| 2026-05-01 13:45 | 58.19055 | -59.69029 | 40207 ft | 526 kts | 250° |
| 2026-05-01 13:46 | 58.16806 | -59.82153 | 40190 ft | 525 kts | 250° |
| 2026-05-01 13:46 | 58.14525 | -59.95332 | 40189 ft | 528 kts | 249° |
| 2026-05-01 13:47 | 58.12230 | -60.08467 | 40183 ft | 526 kts | 249° |
| 2026-05-01 13:47 | 58.09919 | -60.21618 | 40182 ft | 525 kts | 249° |
| 2026-05-01 13:48 | 58.07617 | -60.34643 | 40175 ft | 528 kts | 249° |
| 2026-05-01 13:48 | 58.05288 | -60.47730 | 40175 ft | 525 kts | 249° |
| 2026-05-01 13:49 | 58.02935 | -60.60844 | 40187 ft | 527 kts | 249° |
| 2026-05-01 13:49 | 58.00569 | -60.73934 | 40176 ft | 528 kts | 249° |
| 2026-05-01 13:50 | 57.98206 | -60.86922 | 40170 ft | 526 kts | 249° |
| 2026-05-01 13:50 | 57.95817 | -60.99970 | 40167 ft | 529 kts | 249° |
| 2026-05-01 13:51 | 57.93410 | -61.13023 | 40165 ft | 526 kts | 248° |
| 2026-05-01 13:51 | 57.90988 | -61.26063 | 40165 ft | 528 kts | 248° |
| 2026-05-01 13:52 | 57.88556 | -61.39062 | 40168 ft | 528 kts | 248° |
| 2026-05-01 13:52 | 57.86124 | -61.51983 | 40177 ft | 527 kts | 248° |
| 2026-05-01 13:53 | 57.83662 | -61.64973 | 40164 ft | 528 kts | 248° |
| 2026-05-01 13:53 | 57.79940 | -61.84448 | 40154 ft | 529 kts | 248° |
| 2026-05-01 13:54 | 57.77461 | -61.97305 | 40155 ft | 528 kts | 248° |
| 2026-05-01 13:54 | 57.74947 | -62.10259 | 40157 ft | 528 kts | 248° |
| 2026-05-01 13:55 | 57.72427 | -62.23167 | 40159 ft | 530 kts | 248° |
| 2026-05-01 13:55 | 57.69890 | -62.36073 | 40178 ft | 527 kts | 247° |
| 2026-05-01 13:56 | 57.67335 | -62.48978 | 40158 ft | 529 kts | 247° |
| 2026-05-01 13:56 | 57.64789 | -62.61754 | 40157 ft | 530 kts | 247° |
| 2026-05-01 13:57 | 57.62211 | -62.74616 | 40152 ft | 527 kts | 247° |
| 2026-05-01 13:57 | 57.59621 | -62.87454 | 40148 ft | 530 kts | 247° |
| 2026-05-01 13:58 | 57.57022 | -63.00248 | 40152 ft | 529 kts | 247° |
| 2026-05-01 13:58 | 57.54419 | -63.12983 | 40149 ft | 528 kts | 246° |
| 2026-05-01 13:59 | 57.51786 | -63.25784 | 40161 ft | 531 kts | 246° |
| 2026-05-01 13:59 | 57.49197 | -63.38296 | 40151 ft | 529 kts | 246° |
| 2026-05-01 14:00 | 57.46535 | -63.51076 | 40132 ft | 529 kts | 246° |
| 2026-05-01 14:00 | 57.43868 | -63.63798 | 40134 ft | 530 kts | 246° |
| 2026-05-01 14:01 | 57.41200 | -63.76449 | 40125 ft | 529 kts | 246° |
| 2026-05-01 14:01 | 57.38498 | -63.89176 | 40119 ft | 532 kts | 246° |
| 2026-05-01 14:02 | 57.35787 | -64.01869 | 40122 ft | 531 kts | 246° |
| 2026-05-01 14:02 | 57.33056 | -64.14581 | 40119 ft | 529 kts | 246° |
| 2026-05-01 14:03 | 57.30315 | -64.27258 | 40111 ft | 532 kts | 245° |
| 2026-05-01 14:03 | 57.27583 | -64.39816 | 40109 ft | 530 kts | 245° |
| 2026-05-01 14:04 | 57.24816 | -64.52463 | 40096 ft | 530 kts | 245° |
| 2026-05-01 14:04 | 57.22037 | -64.65081 | 40092 ft | 532 kts | 245° |
| 2026-05-01 14:05 | 57.19250 | -64.77666 | 40092 ft | 529 kts | 245° |
| 2026-05-01 14:05 | 57.16444 | -64.90258 | 40075 ft | 531 kts | 245° |
| 2026-05-01 14:06 | 57.13650 | -65.02716 | 40075 ft | 531 kts | 245° |
| 2026-05-01 14:06 | 57.10823 | -65.15252 | 40062 ft | 529 kts | 245° |
| 2026-05-01 14:07 | 57.07981 | -65.27780 | 40056 ft | 532 kts | 245° |
| 2026-05-01 14:08 | 57.03715 | -65.46441 | 40054 ft | 532 kts | 244° |
| 2026-05-01 14:08 | 57.00847 | -65.58899 | 40056 ft | 530 kts | 244° |
| 2026-05-01 14:09 | 56.97962 | -65.71360 | 40050 ft | 529 kts | 244° |
| 2026-05-01 14:09 | 56.95066 | -65.83787 | 40051 ft | 533 kts | 244° |
| 2026-05-01 14:10 | 56.92153 | -65.96224 | 40038 ft | 530 kts | 244° |
| 2026-05-01 14:10 | 56.89246 | -66.08563 | 40035 ft | 531 kts | 244° |
| 2026-05-01 14:11 | 56.86312 | -66.20941 | 40018 ft | 532 kts | 244° |
| 2026-05-01 14:11 | 56.81882 | -66.39497 | 40020 ft | 532 kts | 244° |
| 2026-05-01 14:12 | 56.78914 | -66.51843 | 40013 ft | 530 kts | 244° |
| 2026-05-01 14:12 | 56.75947 | -66.64115 | 40033 ft | 533 kts | 244° |
| 2026-05-01 14:13 | 56.73460 | -66.74347 | 40019 ft | 532 kts | 244° |
| 2026-05-01 14:13 | 56.69938 | -66.88755 | 40009 ft | 531 kts | 244° |
| 2026-05-01 14:14 | 56.67005 | -67.01097 | 40011 ft | 534 kts | 245° |
| 2026-05-01 14:14 | 56.64192 | -67.13448 | 40012 ft | 531 kts | 245° |
| 2026-05-01 14:15 | 56.61349 | -67.25874 | 40007 ft | 533 kts | 245° |
| 2026-05-01 14:15 | 56.58493 | -67.38259 | 40003 ft | 533 kts | 245° |
| 2026-05-01 14:16 | 56.55651 | -67.50678 | 40010 ft | 532 kts | 245° |
| 2026-05-01 14:16 | 56.52812 | -67.63101 | 40001 ft | 534 kts | 245° |
| 2026-05-01 14:17 | 56.49970 | -67.75392 | 39995 ft | 532 kts | 245° |
| 2026-05-01 14:17 | 56.47076 | -67.87746 | 39991 ft | 533 kts | 244° |
| 2026-05-01 14:18 | 56.44178 | -68.00059 | 39993 ft | 533 kts | 244° |
| 2026-05-01 14:18 | 56.41767 | -68.10304 | 39982 ft | 532 kts | 244° |
| 2026-05-01 14:19 | 56.38388 | -68.24599 | 40001 ft | 535 kts | 244° |
| 2026-05-01 14:19 | 56.35452 | -68.36906 | 39990 ft | 532 kts | 244° |
| 2026-05-01 14:20 | 56.31024 | -68.55307 | 39981 ft | 532 kts | 244° |
| 2026-05-01 14:21 | 56.28079 | -68.67478 | 39972 ft | 535 kts | 244° |
| 2026-05-01 14:21 | 56.25111 | -68.79692 | 39982 ft | 533 kts | 244° |
| 2026-05-01 14:22 | 56.20625 | -68.98006 | 39979 ft | 532 kts | 244° |
| 2026-05-01 14:22 | 56.17609 | -69.10223 | 39981 ft | 535 kts | 244° |
| 2026-05-01 14:23 | 56.14609 | -69.22311 | 39974 ft | 536 kts | 243° |
| 2026-05-01 14:23 | 56.11577 | -69.34472 | 39978 ft | 533 kts | 243° |
| 2026-05-01 14:24 | 56.08530 | -69.46621 | 39971 ft | 534 kts | 243° |
| 2026-05-01 14:24 | 56.05473 | -69.58735 | 39974 ft | 535 kts | 243° |
| 2026-05-01 14:25 | 56.02404 | -69.70835 | 39965 ft | 533 kts | 243° |
| 2026-05-01 14:25 | 55.99336 | -69.82867 | 39979 ft | 538 kts | 243° |
| 2026-05-01 14:26 | 55.94671 | -70.01045 | 39966 ft | 538 kts | 243° |
| 2026-05-01 14:27 | 55.91552 | -70.13113 | 39965 ft | 536 kts | 243° |
| 2026-05-01 14:27 | 55.88412 | -70.25197 | 39952 ft | 536 kts | 243° |
| 2026-05-01 14:28 | 55.83710 | -70.43172 | 39952 ft | 536 kts | 242° |
| 2026-05-01 14:28 | 55.80547 | -70.55183 | 39965 ft | 539 kts | 242° |
| 2026-05-01 14:29 | 55.77368 | -70.67190 | 39954 ft | 536 kts | 242° |
| 2026-05-01 14:30 | 55.70994 | -70.91072 | 39943 ft | 537 kts | 242° |
| 2026-05-01 14:31 | 55.66172 | -71.08980 | 39943 ft | 537 kts | 242° |
| 2026-05-01 14:31 | 55.62935 | -71.20923 | 39956 ft | 537 kts | 242° |
| 2026-05-01 14:32 | 55.59683 | -71.32851 | 39951 ft | 540 kts | 241° |
| 2026-05-01 14:32 | 55.56444 | -71.44674 | 39942 ft | 537 kts | 241° |
| 2026-05-01 14:33 | 55.53167 | -71.56577 | 39928 ft | 538 kts | 241° |
| 2026-05-01 14:33 | 55.49885 | -71.68436 | 39940 ft | 540 kts | 241° |
| 2026-05-01 14:34 | 55.46589 | -71.80284 | 39948 ft | 539 kts | 241° |
| 2026-05-01 14:34 | 55.43267 | -71.92165 | 39928 ft | 538 kts | 241° |
| 2026-05-01 14:35 | 55.39956 | -72.03938 | 39925 ft | 545 kts | 241° |
| 2026-05-01 14:35 | 55.36603 | -72.15810 | 39923 ft | 542 kts | 240° |
| 2026-05-01 14:36 | 55.33236 | -72.27667 | 39922 ft | 541 kts | 240° |
| 2026-05-01 14:36 | 55.29859 | -72.39500 | 39928 ft | 543 kts | 240° |
| 2026-05-01 14:37 | 55.26483 | -72.51266 | 39916 ft | 545 kts | 240° |
| 2026-05-01 14:37 | 55.23072 | -72.63097 | 39913 ft | 543 kts | 240° |
| 2026-05-01 14:38 | 55.19650 | -72.74908 | 39916 ft | 545 kts | 240° |
| 2026-05-01 14:38 | 55.16218 | -72.86690 | 39912 ft | 543 kts | 240° |
| 2026-05-01 14:39 | 55.12771 | -72.98466 | 39908 ft | 543 kts | 240° |
| 2026-05-01 14:39 | 55.09334 | -73.10145 | 39925 ft | 547 kts | 240° |
| 2026-05-01 14:40 | 55.05864 | -73.21885 | 39914 ft | 544 kts | 240° |
| 2026-05-01 14:40 | 55.02374 | -73.33631 | 39910 ft | 543 kts | 240° |
| 2026-05-01 14:41 | 54.98877 | -73.45337 | 39914 ft | 549 kts | 240° |
| 2026-05-01 14:41 | 54.95383 | -73.56984 | 39919 ft | 546 kts | 239° |
| 2026-05-01 14:42 | 54.91851 | -73.68699 | 39938 ft | 546 kts | 239° |
| 2026-05-01 14:42 | 54.88430 | -73.79985 | 39916 ft | 547 kts | 239° |
| 2026-05-01 14:43 | 54.84840 | -73.91770 | 39899 ft | 546 kts | 239° |
| 2026-05-01 14:43 | 54.81276 | -74.03420 | 39897 ft | 545 kts | 239° |
| 2026-05-01 14:44 | 54.77729 | -74.14951 | 39909 ft | 550 kts | 239° |
| 2026-05-01 14:44 | 54.72327 | -74.32417 | 39903 ft | 551 kts | 239° |
| 2026-05-01 14:45 | 54.66898 | -74.49832 | 39899 ft | 550 kts | 239° |
| 2026-05-01 14:46 | 54.63296 | -74.61318 | 39908 ft | 548 kts | 239° |
| 2026-05-01 14:46 | 54.57831 | -74.78650 | 39925 ft | 548 kts | 239° |
| 2026-05-01 14:47 | 54.54150 | -74.90248 | 39913 ft | 552 kts | 239° |
| 2026-05-01 14:48 | 54.48636 | -75.07523 | 39917 ft | 551 kts | 239° |
| 2026-05-01 14:48 | 54.43071 | -75.24827 | 39914 ft | 551 kts | 238° |
| 2026-05-01 14:49 | 54.35614 | -75.47828 | 39941 ft | 553 kts | 238° |
| 2026-05-01 14:50 | 54.28091 | -75.70812 | 39937 ft | 556 kts | 238° |
| 2026-05-01 14:51 | 54.22408 | -75.88031 | 39941 ft | 556 kts | 238° |
| 2026-05-01 14:52 | 54.16699 | -76.05208 | 39943 ft | 558 kts | 238° |
| 2026-05-01 14:53 | 54.10966 | -76.22335 | 39961 ft | 559 kts | 238° |
| 2026-05-01 14:53 | 54.07115 | -76.33777 | 39958 ft | 559 kts | 238° |
| 2026-05-01 14:54 | 54.03248 | -76.45211 | 39958 ft | 556 kts | 238° |
| 2026-05-01 14:54 | 53.99390 | -76.56561 | 39969 ft | 557 kts | 238° |
| 2026-05-01 14:55 | 53.95500 | -76.67954 | 39971 ft | 559 kts | 238° |
| 2026-05-01 14:55 | 53.91598 | -76.79331 | 39981 ft | 557 kts | 238° |
| 2026-05-01 14:56 | 53.87668 | -76.90738 | 39975 ft | 558 kts | 238° |
| 2026-05-01 14:56 | 53.83761 | -77.02025 | 39974 ft | 561 kts | 238° |
| 2026-05-01 14:57 | 53.79822 | -77.13349 | 39986 ft | 559 kts | 238° |
| 2026-05-01 14:57 | 53.73864 | -77.30385 | 39970 ft | 561 kts | 237° |
| 2026-05-01 14:58 | 53.69879 | -77.41714 | 39957 ft | 559 kts | 237° |
| 2026-05-01 14:58 | 53.65899 | -77.52977 | 39949 ft | 563 kts | 237° |
| 2026-05-01 14:59 | 53.61894 | -77.64259 | 39946 ft | 563 kts | 237° |
| 2026-05-01 14:59 | 53.57864 | -77.75560 | 39946 ft | 563 kts | 237° |
| 2026-05-01 15:00 | 53.51799 | -77.92471 | 39992 ft | 562 kts | 237° |
| 2026-05-01 15:01 | 53.47764 | -78.03658 | 39990 ft | 563 kts | 237° |
| 2026-05-01 15:01 | 53.43697 | -78.14885 | 39996 ft | 565 kts | 237° |
| 2026-05-01 15:02 | 53.39612 | -78.26110 | 39994 ft | 565 kts | 237° |
| 2026-05-01 15:02 | 53.35504 | -78.37348 | 39992 ft | 563 kts | 237° |
| 2026-05-01 15:03 | 53.31387 | -78.48559 | 39995 ft | 566 kts | 237° |
| 2026-05-01 15:03 | 53.27294 | -78.59652 | 39998 ft | 565 kts | 237° |
| 2026-05-01 15:04 | 53.23159 | -78.70813 | 40009 ft | 564 kts | 237° |
| 2026-05-01 15:04 | 53.19005 | -78.81976 | 40007 ft | 569 kts | 237° |
| 2026-05-01 15:05 | 53.14833 | -78.93140 | 40005 ft | 566 kts | 237° |
| 2026-05-01 15:05 | 53.10674 | -79.04216 | 40002 ft | 568 kts | 236° |
| 2026-05-01 15:06 | 53.06486 | -79.15321 | 40006 ft | 568 kts | 236° |
| 2026-05-01 15:06 | 53.02291 | -79.26398 | 40007 ft | 566 kts | 236° |
| 2026-05-01 15:07 | 52.98072 | -79.37485 | 40010 ft | 568 kts | 236° |
| 2026-05-01 15:07 | 52.93879 | -79.48460 | 40019 ft | 567 kts | 236° |
| 2026-05-01 15:08 | 52.89647 | -79.59485 | 40018 ft | 566 kts | 236° |
| 2026-05-01 15:08 | 52.85405 | -79.70489 | 40022 ft | 569 kts | 236° |
| 2026-05-01 15:09 | 52.81148 | -79.81483 | 40033 ft | 566 kts | 236° |
| 2026-05-01 15:09 | 52.76902 | -79.92408 | 40041 ft | 569 kts | 235° |
| 2026-05-01 15:10 | 52.72614 | -80.03388 | 40039 ft | 570 kts | 235° |
| 2026-05-01 15:10 | 52.66156 | -80.19835 | 40050 ft | 569 kts | 236° |
| 2026-05-01 15:11 | 52.59673 | -80.36235 | 40053 ft | 571 kts | 235° |
| 2026-05-01 15:12 | 52.55364 | -80.47089 | 40063 ft | 570 kts | 235° |
| 2026-05-01 15:12 | 52.48839 | -80.63420 | 40073 ft | 570 kts | 235° |
| 2026-05-01 15:14 | 52.37937 | -80.90482 | 40087 ft | 572 kts | 235° |
| 2026-05-01 15:14 | 52.31340 | -81.06714 | 40095 ft | 571 kts | 234° |
| 2026-05-01 15:15 | 52.22500 | -81.28311 | 40088 ft | 571 kts | 234° |
| 2026-05-01 15:16 | 52.13652 | -81.49750 | 40106 ft | 572 kts | 235° |
| 2026-05-01 15:18 | 52.02533 | -81.76437 | 40111 ft | 572 kts | 235° |
| 2026-05-01 15:19 | 51.93567 | -81.97756 | 40120 ft | 572 kts | 234° |
| 2026-05-01 15:19 | 51.86817 | -82.13690 | 40114 ft | 572 kts | 234° |
| 2026-05-01 15:20 | 51.80073 | -82.29517 | 40120 ft | 572 kts | 234° |
| 2026-05-01 15:21 | 51.75537 | -82.40101 | 40130 ft | 573 kts | 234° |
| 2026-05-01 15:21 | 51.70998 | -82.50656 | 40125 ft | 572 kts | 234° |
| 2026-05-01 15:22 | 51.64168 | -82.66445 | 40131 ft | 572 kts | 234° |
| 2026-05-01 15:22 | 51.59632 | -82.76887 | 40130 ft | 573 kts | 234° |
| 2026-05-01 15:23 | 51.55047 | -82.87392 | 40140 ft | 574 kts | 234° |
| 2026-05-01 15:23 | 51.50453 | -82.97884 | 40135 ft | 575 kts | 234° |
| 2026-05-01 15:24 | 51.45849 | -83.08342 | 40139 ft | 573 kts | 234° |
| 2026-05-01 15:24 | 51.41265 | -83.18724 | 40137 ft | 575 kts | 233° |
| 2026-05-01 15:25 | 51.36642 | -83.29143 | 40140 ft | 573 kts | 234° |
| 2026-05-01 15:25 | 51.32013 | -83.39549 | 40139 ft | 575 kts | 234° |
| 2026-05-01 15:26 | 51.27370 | -83.49930 | 40141 ft | 574 kts | 234° |
| 2026-05-01 15:26 | 51.22717 | -83.60302 | 40143 ft | 575 kts | 233° |
| 2026-05-01 15:27 | 51.18083 | -83.70578 | 40140 ft | 574 kts | 233° |
| 2026-05-01 15:28 | 51.11075 | -83.86057 | 40144 ft | 575 kts | 234° |
| 2026-05-01 15:28 | 51.06391 | -83.96350 | 40141 ft | 574 kts | 233° |
| 2026-05-01 15:29 | 50.99382 | -84.11675 | 40140 ft | 574 kts | 233° |
| 2026-05-01 15:30 | 50.90750 | -84.30424 | 40146 ft | 575 kts | 233° |
| 2026-05-01 15:31 | 50.75795 | -84.62600 | 40144 ft | 574 kts | 233° |
| 2026-05-01 15:32 | 50.66285 | -84.82850 | 40147 ft | 575 kts | 233° |
| 2026-05-01 15:34 | 50.51999 | -85.12982 | 40153 ft | 573 kts | 233° |